Time;durP1;ratioP1;P1;durP2;ratioP2;P2;SDS_P1;SDS_P2;PMS_P1;PMS_P2;Temp;Humidity;BMP_temperature;BMP_pressure;BME280_temperature;BME280_humidity;BME280_pressure;Samples;Min_cycle;Max_cycle;Signal;HPM_P1;HPM_P2
2022/09/15 00:00:21;;;;;;;10.03;5.90;;;13.60;99.90;;;;;;5013360;28;20453;-59
2022/09/15 00:02:50;;;;;;;10.90;6.10;;;13.60;99.90;;;;;;5013142;28;20481;-58
2022/09/15 00:05:17;;;;;;;15.33;6.10;;;13.60;99.90;;;;;;5013339;28;20449;-58
2022/09/15 00:07:44;;;;;;;11.73;6.47;;;13.60;99.90;;;;;;5013206;28;20964;-59
2022/09/15 00:10:12;;;;;;;8.87;5.97;;;13.50;99.90;;;;;;5013349;28;20457;-59
2022/09/15 00:12:38;;;;;;;9.07;6.90;;;13.50;99.90;;;;;;5013075;28;20469;-59
2022/09/15 00:15:07;;;;;;;9.57;6.60;;;13.50;99.90;;;;;;5012603;28;20846;-59
2022/09/15 00:17:33;;;;;;;9.30;6.30;;;13.40;99.90;;;;;;5013098;28;20445;-59
2022/09/15 00:20:04;;;;;;;11.13;6.53;;;13.40;99.90;;;;;;5013033;28;20468;-59
2022/09/15 00:22:31;;;;;;;13.30;8.30;;;13.40;99.90;;;;;;5013591;28;20470;-60
2022/09/15 00:24:58;;;;;;;11.30;7.03;;;13.40;99.90;;;;;;5013796;28;20478;-60
2022/09/15 00:27:25;;;;;;;10.60;6.57;;;13.30;99.90;;;;;;5016836;28;20967;-59
2022/09/15 00:29:52;;;;;;;13.00;7.13;;;13.30;99.90;;;;;;5017096;28;20456;-59
2022/09/15 00:32:18;;;;;;;12.53;7.10;;;13.30;99.90;;;;;;5017484;28;20465;-59
2022/09/15 00:34:45;;;;;;;12.97;6.97;;;13.30;99.90;;;;;;5017018;28;20477;-60
2022/09/15 00:37:13;;;;;;;8.37;6.17;;;13.30;99.90;;;;;;5016756;28;20450;-59
2022/09/15 00:39:40;;;;;;;13.07;7.47;;;13.20;99.90;;;;;;5016899;28;20814;-59
2022/09/15 00:42:07;;;;;;;13.37;7.20;;;13.20;99.90;;;;;;5016545;28;21100;-59
2022/09/15 00:44:50;;;;;;;8.37;6.13;;;13.20;99.90;;;;;;5017681;28;20437;-60
2022/09/15 00:47:20;;;;;;;12.10;7.30;;;13.20;99.90;;;;;;5016883;28;20430;-60
2022/09/15 00:49:48;;;;;;;11.37;7.00;;;13.10;99.90;;;;;;5016697;28;20441;-60
2022/09/15 00:52:20;;;;;;;10.63;6.60;;;13.10;99.90;;;;;;5016515;28;20504;-60
2022/09/15 00:54:50;;;;;;;13.97;7.50;;;13.00;99.90;;;;;;5016684;28;20492;-59
2022/09/15 00:57:21;;;;;;;11.77;6.57;;;13.00;99.90;;;;;;5016692;28;20441;-59
2022/09/15 00:59:49;;;;;;;8.40;6.43;;;13.00;99.90;;;;;;5016733;28;20430;-59
2022/09/15 01:02:18;;;;;;;8.67;7.13;;;13.00;99.90;;;;;;5018124;28;21000;-60
2022/09/15 01:04:45;;;;;;;13.07;7.00;;;13.00;99.90;;;;;;5017658;28;20438;-60
2022/09/15 01:07:18;;;;;;;10.10;6.43;;;13.00;99.90;;;;;;5019270;28;20816;-62
2022/09/15 01:09:51;;;;;;;7.73;6.60;;;13.00;99.90;;;;;;5020444;28;20441;-60
2022/09/15 01:12:18;;;;;;;10.40;6.90;;;13.00;99.90;;;;;;5016927;28;20477;-61
2022/09/15 01:14:45;;;;;;;11.77;7.10;;;13.00;99.90;;;;;;5016173;28;20473;-60
2022/09/15 01:17:20;;;;;;;9.70;6.53;;;13.00;99.90;;;;;;5016443;28;20450;-59
2022/09/15 01:20:15;;;;;;;11.33;7.23;;;13.00;99.90;;;;;;5016856;28;20425;-59
2022/09/15 01:23:07;;;;;;;12.00;7.20;;;12.90;99.90;;;;;;5016172;28;20466;-61
2022/09/15 01:25:59;;;;;;;7.90;6.50;;;12.90;99.90;;;;;;5016428;28;20442;-60
2022/09/15 01:28:45;;;;;;;8.80;7.30;;;12.90;99.90;;;;;;5015928;28;20426;-60
2022/09/15 01:31:19;;;;;;;14.60;7.20;;;12.90;99.90;;;;;;5015909;28;20916;-60
2022/09/15 01:33:53;;;;;;;11.03;7.30;;;12.90;99.90;;;;;;5016194;28;20426;-60
2022/09/15 01:36:24;;;;;;;13.13;7.33;;;12.90;99.90;;;;;;5015829;28;20464;-59
2022/09/15 01:38:59;;;;;;;12.67;8.00;;;12.90;99.90;;;;;;5015324;28;20426;-60
2022/09/15 01:41:29;;;;;;;16.93;7.30;;;12.80;99.90;;;;;;5015985;28;20437;-60
2022/09/15 01:44:02;;;;;;;13.10;7.80;;;12.70;99.90;;;;;;5015876;28;20446;-60
2022/09/15 01:46:36;;;;;;;9.40;8.37;;;12.70;99.90;;;;;;5015887;28;20430;-59
2022/09/15 01:49:05;;;;;;;13.53;8.30;;;12.60;99.90;;;;;;5015938;28;20426;-59
2022/09/15 01:51:34;;;;;;;17.40;8.67;;;12.60;99.90;;;;;;5015741;28;20504;-59
2022/09/15 01:54:05;;;;;;;10.13;7.53;;;12.60;99.90;;;;;;5016490;28;20446;-59
2022/09/15 01:56:32;;;;;;;9.93;8.30;;;12.60;99.90;;;;;;5015453;28;20970;-59
2022/09/15 01:58:59;;;;;;;11.77;8.53;;;12.60;99.90;;;;;;5015630;28;20457;-59
2022/09/15 02:01:32;;;;;;;10.63;7.30;;;12.50;99.90;;;;;;5015543;28;20450;-59
2022/09/15 02:04:04;;;;;;;11.13;8.17;;;12.60;99.90;;;;;;5057427;22;20484;-65
2022/09/15 02:06:39;;;;;;;11.33;8.90;;;12.60;99.90;;;;;;5035175;28;20889;-65
2022/09/15 02:09:12;;;;;;;13.60;8.40;;;12.60;99.90;;;;;;5035890;28;20495;-64
2022/09/15 02:11:47;;;;;;;8.83;7.60;;;12.60;99.90;;;;;;5035519;28;20833;-63
2022/09/15 02:14:19;;;;;;;12.50;8.00;;;12.60;99.90;;;;;;5035675;28;20886;-64
2022/09/15 02:16:52;;;;;;;11.20;8.13;;;12.50;99.90;;;;;;5035913;28;20553;-63
2022/09/15 02:19:22;;;;;;;11.83;8.97;;;12.50;99.90;;;;;;5036005;28;20504;-64
2022/09/15 02:21:57;;;;;;;15.40;9.73;;;12.50;99.90;;;;;;5035728;28;20440;-64
2022/09/15 02:24:29;;;;;;;11.80;8.23;;;12.50;99.90;;;;;;5036176;28;20436;-64
2022/09/15 02:26:58;;;;;;;13.40;8.30;;;12.50;99.90;;;;;;5035741;28;20429;-64
2022/09/15 02:29:27;;;;;;;15.80;11.57;;;12.40;99.90;;;;;;5035154;28;20458;-64
2022/09/15 02:31:58;;;;;;;12.80;9.13;;;12.40;99.90;;;;;;5035240;28;20467;-64
2022/09/15 02:34:28;;;;;;;12.50;8.30;;;12.40;99.90;;;;;;5035207;28;20433;-64
2022/09/15 02:36:56;;;;;;;13.50;9.30;;;12.30;99.90;;;;;;5034514;28;20484;-64
2022/09/15 02:39:27;;;;;;;14.33;9.80;;;12.40;99.90;;;;;;5034530;28;20455;-64
2022/09/15 02:41:54;;;;;;;20.67;10.13;;;12.30;99.90;;;;;;5034793;28;20432;-64
2022/09/15 02:44:22;;;;;;;17.00;9.67;;;12.30;99.90;;;;;;5034946;28;20445;-63
2022/09/15 02:46:49;;;;;;;11.70;8.77;;;12.30;99.90;;;;;;5034918;28;20449;-64
2022/09/15 02:49:18;;;;;;;18.60;9.20;;;12.30;99.90;;;;;;5034372;28;20544;-65
2022/09/15 02:51:45;;;;;;;16.03;9.50;;;12.30;99.90;;;;;;5035338;28;20445;-64
2022/09/15 02:54:12;;;;;;;17.77;9.90;;;12.30;99.90;;;;;;5034640;28;20534;-65
2022/09/15 02:56:39;;;;;;;15.40;8.43;;;12.30;99.90;;;;;;5035560;28;20472;-65
2022/09/15 02:59:06;;;;;;;14.03;9.20;;;12.30;99.90;;;;;;5035463;28;20452;-65
2022/09/15 03:01:33;;;;;;;17.10;9.33;;;12.20;99.90;;;;;;5034769;28;20816;-65
2022/09/15 03:04:01;;;;;;;13.70;9.10;;;12.20;99.90;;;;;;5033998;28;20539;-64
2022/09/15 03:06:33;;;;;;;14.70;9.83;;;12.20;99.90;;;;;;5034576;28;20456;-65
2022/09/15 03:09:01;;;;;;;13.10;9.33;;;12.10;99.90;;;;;;5034266;28;20440;-65
2022/09/15 03:11:29;;;;;;;13.63;9.27;;;12.10;99.90;;;;;;5033922;28;20928;-65
2022/09/15 03:13:57;;;;;;;17.70;10.20;;;12.20;99.90;;;;;;5034150;28;20469;-65
2022/09/15 03:16:25;;;;;;;14.40;9.60;;;12.10;99.90;;;;;;5034233;28;20503;-65
2022/09/15 03:18:53;;;;;;;11.83;8.10;;;12.10;99.90;;;;;;5034345;28;20457;-65
2022/09/15 03:21:21;;;;;;;11.33;8.70;;;12.00;99.90;;;;;;5033618;28;20815;-65
2022/09/15 03:23:49;;;;;;;14.43;9.43;;;12.00;99.90;;;;;;5033609;28;20853;-65
2022/09/15 03:26:16;;;;;;;14.20;10.63;;;11.90;99.90;;;;;;5033735;28;20433;-65
2022/09/15 03:28:43;;;;;;;14.93;9.77;;;11.90;99.90;;;;;;5033779;28;20467;-65
2022/09/15 03:31:10;;;;;;;15.10;9.70;;;11.90;99.90;;;;;;5033698;28;20445;-65
2022/09/15 03:33:37;;;;;;;15.70;9.03;;;11.90;99.90;;;;;;5033346;28;20476;-65
2022/09/15 03:36:04;;;;;;;11.40;8.23;;;12.00;99.90;;;;;;5033177;28;20477;-65
2022/09/15 03:38:31;;;;;;;15.00;9.33;;;12.00;99.90;;;;;;5034200;28;20448;-65
2022/09/15 03:41:02;;;;;;;13.17;8.73;;;12.00;99.90;;;;;;5035647;28;20457;-63
2022/09/15 03:43:29;;;;;;;17.83;9.20;;;12.10;99.90;;;;;;5033681;28;20480;-65
2022/09/15 03:45:57;;;;;;;12.40;9.40;;;12.10;99.90;;;;;;5033667;28;20456;-65
2022/09/15 03:48:24;;;;;;;10.13;7.93;;;12.20;99.90;;;;;;5033300;28;20449;-66
2022/09/15 03:50:51;;;;;;;20.43;8.57;;;12.30;99.90;;;;;;5033074;28;20944;-65
2022/09/15 03:53:19;;;;;;;15.13;7.60;;;12.30;99.90;;;;;;5033262;28;20465;-65
2022/09/15 03:55:46;;;;;;;12.00;7.87;;;12.30;99.90;;;;;;5033338;28;20500;-65
2022/09/15 03:58:15;;;;;;;15.97;8.73;;;12.30;99.90;;;;;;5033063;28;20453;-64
2022/09/15 04:00:42;;;;;;;13.57;7.47;;;12.30;99.90;;;;;;5032196;28;20819;-64
2022/09/15 04:03:09;;;;;;;12.20;8.13;;;12.20;99.90;;;;;;5032776;28;20491;-64
2022/09/15 04:05:37;;;;;;;9.60;7.40;;;12.10;99.90;;;;;;5032886;28;20813;-65
2022/09/15 04:10:16;;;;;;;12.07;7.53;;;12.10;99.90;;;;;;5090983;28;20550;-65
2022/09/15 04:12:43;;;;;;;12.70;8.53;;;12.00;99.90;;;;;;5090621;28;20463;-65
2022/09/15 04:15:10;;;;;;;13.60;6.93;;;12.00;99.90;;;;;;5090694;28;20439;-64
2022/09/15 04:17:37;;;;;;;9.20;6.87;;;12.00;99.90;;;;;;5090896;28;20438;-64
2022/09/15 04:20:04;;;;;;;14.87;6.40;;;12.00;99.90;;;;;;5090748;28;20465;-65
2022/09/15 04:22:31;;;;;;;11.83;7.13;;;12.00;99.90;;;;;;5090610;28;20470;-65
2022/09/15 04:24:58;;;;;;;8.63;5.50;;;12.10;99.90;;;;;;5090516;28;20468;-64
2022/09/15 04:27:26;;;;;;;8.50;6.53;;;12.20;99.90;;;;;;5090592;28;20439;-64
2022/09/15 04:29:53;;;;;;;8.10;6.00;;;12.20;99.90;;;;;;5090528;28;20474;-64
2022/09/15 04:32:20;;;;;;;7.30;5.63;;;12.30;99.90;;;;;;5090655;28;20469;-65
2022/09/15 04:34:47;;;;;;;9.93;6.27;;;12.40;99.90;;;;;;5090265;28;20442;-64
2022/09/15 04:37:14;;;;;;;8.93;5.80;;;12.40;99.90;;;;;;5089830;28;20451;-64
2022/09/15 04:39:41;;;;;;;8.07;5.20;;;12.40;99.90;;;;;;5090254;28;20450;-66
2022/09/15 04:42:08;;;;;;;7.90;5.37;;;12.50;99.90;;;;;;5090567;28;20446;-66
2022/09/15 04:44:36;;;;;;;7.73;4.90;;;12.40;99.90;;;;;;5090076;28;20814;-65
2022/09/15 04:47:02;;;;;;;7.90;6.03;;;12.50;99.90;;;;;;5090198;28;20965;-64
2022/09/15 04:49:30;;;;;;;7.23;5.50;;;12.50;99.90;;;;;;5090372;28;20581;-62
2022/09/15 04:51:57;;;;;;;7.90;6.00;;;12.50;99.90;;;;;;5090384;28;20450;-66
2022/09/15 04:54:24;;;;;;;9.10;6.73;;;12.60;99.90;;;;;;5078174;28;20430;-68
2022/09/15 04:56:50;;;;;;;8.07;5.93;;;12.70;99.90;;;;;;5069539;28;20443;-68
2022/09/15 04:59:18;;;;;;;10.67;5.53;;;12.80;99.90;;;;;;5069433;28;20898;-68
2022/09/15 05:01:47;;;;;;;10.97;5.30;;;12.80;99.90;;;;;;5068921;28;20962;-68
2022/09/15 05:04:14;;;;;;;6.60;5.90;;;12.80;99.90;;;;;;5069220;28;20467;-68
2022/09/15 05:06:40;;;;;;;6.53;5.37;;;12.80;99.90;;;;;;5069328;28;20443;-70
2022/09/15 05:09:08;;;;;;;6.13;5.50;;;12.90;99.90;;;;;;5069015;28;20483;-67
2022/09/15 05:11:35;;;;;;;7.70;5.20;;;12.90;99.90;;;;;;5069678;28;20443;-67
2022/09/15 05:14:02;;;;;;;15.10;6.30;;;12.90;99.90;;;;;;5068945;28;20471;-68
2022/09/15 05:16:30;;;;;;;10.77;6.00;;;12.90;99.90;;;;;;5069055;28;20951;-67
2022/09/15 05:18:59;;;;;;;8.93;5.50;;;12.90;99.90;;;;;;5068740;28;20455;-67
2022/09/15 05:21:27;;;;;;;8.10;5.80;;;12.90;99.90;;;;;;5056628;28;20452;-67
2022/09/15 05:23:55;;;;;;;8.20;6.20;;;12.90;99.90;;;;;;5055360;28;20980;-68
2022/09/15 05:26:24;;;;;;;8.80;6.07;;;12.90;99.90;;;;;;5055841;28;20527;-68
2022/09/15 05:28:51;;;;;;;7.13;5.73;;;12.80;99.90;;;;;;5055472;28;20480;-66
2022/09/15 05:31:19;;;;;;;11.60;6.43;;;12.80;99.90;;;;;;5055683;28;20454;-67
2022/09/15 05:33:47;;;;;;;11.53;6.80;;;12.90;99.90;;;;;;5055391;28;20958;-68
2022/09/15 05:36:18;;;;;;;8.40;6.20;;;12.90;99.90;;;;;;5055126;28;20959;-68
2022/09/15 05:38:45;;;;;;;12.23;7.37;;;13.00;99.90;;;;;;5055613;28;20425;-69
2022/09/15 05:41:15;;;;;;;8.87;6.60;;;13.00;99.90;;;;;;5055663;28;20441;-67
2022/09/15 05:43:43;;;;;;;7.43;5.97;;;13.00;99.90;;;;;;5055616;28;20472;-68
2022/09/15 05:46:10;;;;;;;9.37;6.00;;;13.10;99.90;;;;;;5055244;28;20451;-68
2022/09/15 05:48:37;;;;;;;9.10;6.30;;;13.10;99.90;;;;;;5055442;28;20480;-67
2022/09/15 05:51:04;;;;;;;9.93;6.57;;;13.10;99.90;;;;;;5055114;28;20539;-67
2022/09/15 05:53:33;;;;;;;13.30;6.47;;;13.10;99.90;;;;;;5054761;28;20471;-67
2022/09/15 05:56:03;;;;;;;9.40;6.10;;;13.20;99.90;;;;;;5057408;28;20444;-69
2022/09/15 05:58:30;;;;;;;7.83;5.87;;;13.20;99.90;;;;;;5055807;28;20448;-67
2022/09/15 06:01:02;;;;;;;7.93;5.57;;;13.30;99.90;;;;;;5055930;28;20555;-68
2022/09/15 06:03:29;;;;;;;12.53;6.80;;;13.30;99.90;;;;;;5056228;28;20472;-68
2022/09/15 06:05:59;;;;;;;9.47;5.37;;;13.40;99.90;;;;;;5056997;28;20451;-69
2022/09/15 06:08:32;;;;;;;10.60;6.80;;;13.40;99.90;;;;;;5056445;28;20940;-69
2022/09/15 06:11:04;;;;;;;9.60;5.87;;;13.50;99.90;;;;;;5056986;28;20452;-68
2022/09/15 06:13:31;;;;;;;7.97;5.40;;;13.50;99.90;;;;;;5059292;28;20471;-69
2022/09/15 06:16:02;;;;;;;8.60;5.60;;;13.60;99.90;;;;;;5059542;28;20447;-68
2022/09/15 06:18:29;;;;;;;8.77;5.97;;;13.60;99.90;;;;;;5061917;28;20448;-68
2022/09/15 06:20:56;;;;;;;6.73;5.20;;;13.60;99.90;;;;;;5059792;28;20440;-70
2022/09/15 06:23:23;;;;;;;9.90;6.53;;;13.70;99.90;;;;;;5057874;28;20463;-67
2022/09/15 06:25:52;;;;;;;6.77;5.80;;;13.70;99.90;;;;;;5056177;28;20456;-67
2022/09/15 06:28:19;;;;;;;5.33;4.67;;;13.70;99.90;;;;;;5055387;28;20536;-67
2022/09/15 06:30:48;;;;;;;7.33;5.53;;;13.70;99.90;;;;;;5055388;28;20475;-68
2022/09/15 06:33:15;;;;;;;6.67;5.00;;;13.70;99.90;;;;;;5053987;28;20472;-68
2022/09/15 06:35:42;;;;;;;7.70;5.23;;;13.80;99.90;;;;;;5055387;28;20470;-68
2022/09/15 06:38:09;;;;;;;10.73;4.53;;;13.80;99.90;;;;;;5057135;28;20450;-68
2022/09/15 06:40:36;;;;;;;5.10;4.60;;;13.90;99.90;;;;;;5055409;28;20448;-68
2022/09/15 06:43:04;;;;;;;7.73;4.60;;;13.90;99.90;;;;;;5057268;28;20480;-69
2022/09/15 06:45:31;;;;;;;8.80;4.30;;;13.90;99.90;;;;;;5055925;28;20463;-67
2022/09/15 06:47:58;;;;;;;9.97;4.87;;;14.00;99.90;;;;;;5055609;28;20804;-68
2022/09/15 06:50:25;;;;;;;9.10;4.47;;;14.00;99.90;;;;;;5054486;28;21075;-68
2022/09/15 06:52:52;;;;;;;7.40;4.37;;;14.00;99.90;;;;;;5054430;28;20464;-67
2022/09/15 06:55:18;;;;;;;7.57;5.00;;;14.00;99.90;;;;;;5055225;28;20459;-67
2022/09/15 06:57:45;;;;;;;13.83;4.77;;;14.10;99.90;;;;;;5054443;28;20455;-68
2022/09/15 07:00:15;;;;;;;6.53;4.83;;;14.10;99.90;;;;;;5062880;28;20545;-68
2022/09/15 07:02:41;;;;;;;6.73;5.43;;;14.20;99.90;;;;;;5065954;28;20475;-68
2022/09/15 07:05:09;;;;;;;5.83;4.57;;;14.30;99.90;;;;;;5057437;28;20448;-66
2022/09/15 07:07:36;;;;;;;7.13;4.37;;;14.40;99.90;;;;;;5054858;28;20497;-67
2022/09/15 07:10:04;;;;;;;5.17;4.67;;;14.50;99.90;;;;;;5054149;28;20514;-69
2022/09/15 07:12:31;;;;;;;5.97;3.53;;;14.50;99.90;;;;;;5054412;28;20998;-68
2022/09/15 07:14:58;;;;;;;4.20;3.90;;;14.50;99.90;;;;;;5054287;28;20823;-68
2022/09/15 07:17:26;;;;;;;5.07;4.10;;;14.50;99.90;;;;;;5054449;28;20464;-68
2022/09/15 07:19:53;;;;;;;6.80;3.97;;;14.50;99.90;;;;;;5054407;28;20448;-68
2022/09/15 07:22:20;;;;;;;6.27;4.03;;;14.50;99.90;;;;;;5054038;28;20551;-67
2022/09/15 07:24:47;;;;;;;4.50;3.50;;;14.60;99.90;;;;;;5053799;28;20535;-68
2022/09/15 07:27:13;;;;;;;5.00;3.60;;;14.80;99.90;;;;;;5054381;28;20424;-68
2022/09/15 07:29:40;;;;;;;6.00;3.20;;;14.90;99.90;;;;;;5054754;28;20475;-67
2022/09/15 07:32:07;;;;;;;4.17;2.80;;;15.00;99.90;;;;;;5061561;28;20451;-67
2022/09/15 07:34:35;;;;;;;6.60;3.70;;;15.10;99.90;;;;;;5058855;28;20447;-68
2022/09/15 07:37:02;;;;;;;6.10;3.33;;;15.20;99.90;;;;;;5054106;28;20971;-67
2022/09/15 07:39:29;;;;;;;4.40;3.40;;;15.20;99.90;;;;;;5054138;28;20489;-67
2022/09/15 07:41:56;;;;;;;3.20;2.60;;;15.20;99.90;;;;;;5054091;28;20448;-68
2022/09/15 07:44:23;;;;;;;6.63;3.80;;;15.10;99.90;;;;;;5054825;28;20824;-67
2022/09/15 07:46:50;;;;;;;3.50;3.20;;;15.10;99.90;;;;;;5055035;28;20444;-69
2022/09/15 07:49:17;;;;;;;7.50;3.50;;;15.10;99.90;;;;;;5053747;28;20487;-69
2022/09/15 07:51:45;;;;;;;6.30;2.73;;;15.20;99.90;;;;;;5054190;28;20490;-68
2022/09/15 07:54:12;;;;;;;5.53;3.20;;;15.20;99.90;;;;;;5054386;28;20464;-68
2022/09/15 07:56:39;;;;;;;4.50;2.90;;;15.30;99.90;;;;;;5054131;28;20906;-69
2022/09/15 07:59:06;;;;;;;4.77;2.40;;;15.20;99.90;;;;;;5053633;28;20446;-69
2022/09/15 08:01:33;;;;;;;2.67;2.30;;;15.20;99.90;;;;;;5053544;28;20444;-68
2022/09/15 08:04:00;;;;;;;7.40;2.80;;;15.20;99.90;;;;;;5054881;28;20468;-66
2022/09/15 08:06:27;;;;;;;2.73;1.83;;;15.20;99.90;;;;;;5053682;28;20848;-64
2022/09/15 08:08:56;;;;;;;5.83;2.20;;;15.30;99.90;;;;;;5053818;28;20460;-66
2022/09/15 08:11:23;;;;;;;3.40;2.40;;;15.30;99.90;;;;;;5053826;28;20517;-65
2022/09/15 08:13:51;;;;;;;4.07;2.40;;;15.30;99.90;;;;;;5055243;28;20472;-65
2022/09/15 08:16:19;;;;;;;4.30;2.00;;;15.30;99.90;;;;;;5056131;28;20494;-65
2022/09/15 08:18:47;;;;;;;5.70;2.30;;;15.30;99.90;;;;;;5054202;28;20448;-64
2022/09/15 08:21:15;;;;;;;3.07;1.87;;;15.40;99.90;;;;;;5054197;28;20490;-65
2022/09/15 08:23:43;;;;;;;5.93;2.30;;;15.60;99.90;;;;;;5054200;28;20464;-64
2022/09/15 08:26:12;;;;;;;4.40;1.90;;;15.70;99.90;;;;;;5054404;28;20455;-65
2022/09/15 08:28:39;;;;;;;4.00;1.67;;;15.80;99.90;;;;;;5055714;28;20444;-65
2022/09/15 08:31:08;;;;;;;7.77;1.90;;;16.00;99.90;;;;;;5054088;28;20479;-65
2022/09/15 08:33:35;;;;;;;3.13;1.70;;;16.20;99.90;;;;;;5053177;28;21002;-65
2022/09/15 08:36:06;;;;;;;3.00;1.20;;;16.40;99.90;;;;;;5052867;28;20482;-65
2022/09/15 08:38:33;;;;;;;4.57;1.60;;;16.50;99.90;;;;;;5054012;28;20494;-65
2022/09/15 08:41:05;;;;;;;4.30;1.27;;;16.50;99.70;;;;;;5054444;28;20452;-62
2022/09/15 08:43:45;;;;;;;3.87;1.80;;;16.60;99.40;;;;;;5057333;28;20464;-65
2022/09/15 08:46:17;;;;;;;3.00;1.70;;;16.60;99.00;;;;;;5057256;28;20428;-65
2022/09/15 08:48:52;;;;;;;4.03;2.43;;;16.60;98.80;;;;;;5057552;28;20451;-65
2022/09/15 08:51:29;;;;;;;5.47;2.13;;;16.60;98.50;;;;;;5054505;28;20582;-65
2022/09/15 08:54:02;;;;;;;4.50;2.00;;;16.60;98.20;;;;;;5056617;28;20460;-65
2022/09/15 08:56:30;;;;;;;3.73;2.10;;;16.50;98.00;;;;;;5059339;28;20456;-65
2022/09/15 08:59:00;;;;;;;4.20;1.83;;;16.50;98.10;;;;;;5058609;28;20454;-66
2022/09/15 09:01:40;;;;;;;3.77;1.83;;;16.50;98.20;;;;;;5057028;28;20507;-65
2022/09/15 09:04:36;;;;;;;3.40;2.23;;;16.50;97.80;;;;;;5056785;28;20562;-64
2022/09/15 09:07:14;;;;;;;4.33;1.73;;;16.50;97.60;;;;;;5055989;28;20904;-63
2022/09/15 09:09:49;;;;;;;2.67;1.57;;;16.50;97.20;;;;;;5055948;28;20860;-66
2022/09/15 09:12:29;;;;;;;3.33;1.60;;;16.60;97.20;;;;;;5056612;28;20467;-65
2022/09/15 09:15:21;;;;;;;7.03;1.70;;;16.60;96.90;;;;;;5056390;28;20424;-65
2022/09/15 09:18:14;;;;;;;3.30;1.87;;;16.70;96.60;;;;;;5056675;28;20527;-65
2022/09/15 09:20:52;;;;;;;4.83;1.80;;;16.80;96.20;;;;;;5054470;28;20543;-65
2022/09/15 09:23:23;;;;;;;4.30;1.80;;;16.80;95.70;;;;;;5056467;28;20999;-64
2022/09/15 09:25:51;;;;;;;5.80;1.80;;;16.90;95.40;;;;;;5056486;28;20432;-64
2022/09/15 09:28:36;;;;;;;5.40;1.33;;;16.90;95.10;;;;;;5056159;28;20436;-65
2022/09/15 09:31:07;;;;;;;7.57;1.50;;;16.90;94.90;;;;;;5055456;28;20483;-63
2022/09/15 09:33:41;;;;;;;3.90;1.40;;;16.90;94.30;;;;;;5056049;28;20464;-65
2022/09/15 09:36:10;;;;;;;3.00;1.50;;;17.10;94.40;;;;;;5055927;28;20788;-65
2022/09/15 09:38:39;;;;;;;6.13;1.53;;;17.40;93.90;;;;;;5056573;28;20452;-65
2022/09/15 09:41:11;;;;;;;3.10;1.20;;;17.70;92.80;;;;;;5055737;28;20454;-65
2022/09/15 09:43:38;;;;;;;3.83;1.27;;;17.90;91.80;;;;;;5056159;28;20455;-65
2022/09/15 09:46:13;;;;;;;3.23;1.70;;;17.90;90.80;;;;;;5055607;28;20467;-65
2022/09/15 09:48:45;;;;;;;2.73;1.37;;;17.90;90.20;;;;;;5055322;28;20530;-66
2022/09/15 09:51:30;;;;;;;3.87;1.50;;;18.00;89.70;;;;;;5055878;28;20533;-65
2022/09/15 09:54:05;;;;;;;6.30;1.40;;;18.20;89.00;;;;;;5055211;28;20460;-66
2022/09/15 09:56:32;;;;;;;4.00;1.20;;;18.20;86.20;;;;;;5055260;28;20423;-65
2022/09/15 09:59:00;;;;;;;3.10;1.70;;;18.20;84.70;;;;;;5055776;28;20873;-65
2022/09/15 10:01:28;;;;;;;3.53;1.20;;;18.20;83.10;;;;;;5055725;28;20862;-65
2022/09/15 10:04:16;;;;;;;5.73;1.70;;;18.20;82.30;;;;;;5055481;28;20464;-64
2022/09/15 10:06:43;;;;;;;4.03;1.37;;;18.20;81.00;;;;;;5054544;28;20946;-64
2022/09/15 10:09:17;;;;;;;5.30;1.40;;;18.10;80.70;;;;;;5055163;28;20466;-64
2022/09/15 10:11:46;;;;;;;1.70;0.93;;;18.20;80.50;;;;;;5055956;28;20464;-64
2022/09/15 10:14:22;;;;;;;3.40;1.30;;;18.30;79.10;;;;;;5055340;28;20486;-66
2022/09/15 10:17:02;;;;;;;4.90;1.40;;;18.40;77.70;;;;;;5055122;28;20444;-65
2022/09/15 10:19:30;;;;;;;4.10;1.17;;;18.70;77.50;;;;;;5054939;28;20460;-65
2022/09/15 10:21:59;;;;;;;3.10;1.43;;;19.10;75.30;;;;;;5054520;28;20448;-66
2022/09/15 10:24:39;;;;;;;5.87;1.07;;;19.20;72.60;;;;;;5054648;28;20440;-66
2022/09/15 10:27:16;;;;;;;4.60;0.93;;;19.10;69.60;;;;;;5054608;28;20429;-64
2022/09/15 10:29:43;;;;;;;2.93;1.40;;;18.80;69.90;;;;;;5055001;28;20451;-65
2022/09/15 10:32:23;;;;;;;2.23;1.27;;;18.60;70.20;;;;;;5068668;28;20949;-65
2022/09/15 10:34:59;;;;;;;5.13;1.30;;;18.40;70.10;;;;;;5074381;28;20443;-66
2022/09/15 10:37:31;;;;;;;3.10;1.00;;;18.40;70.80;;;;;;5074473;28;20500;-66
2022/09/15 10:40:00;;;;;;;6.07;1.70;;;18.30;71.00;;;;;;5054296;28;20428;-66
2022/09/15 10:42:48;;;;;;;4.67;1.10;;;18.30;70.70;;;;;;5054482;28;20464;-65
2022/09/15 10:45:35;;;;;;;4.67;1.67;;;18.20;70.60;;;;;;5054296;28;20444;-63
2022/09/15 10:48:29;;;;;;;2.70;1.38;;;17.90;70.70;;;;;;5055501;28;20345;-64
2022/09/15 10:51:01;;;;;;;2.23;1.10;;;17.70;70.80;;;;;;5055300;28;20214;-64
2022/09/15 10:53:59;;;;;;;3.17;1.30;;;17.60;71.40;;;;;;5055425;28;20468;-66
2022/09/15 10:56:29;;;;;;;3.93;1.20;;;17.50;71.30;;;;;;5054697;28;20436;-65
2022/09/15 10:59:20;;;;;;;2.23;1.33;;;17.50;70.80;;;;;;5055656;28;20467;-65
2022/09/15 11:02:00;;;;;;;3.37;1.23;;;17.60;70.50;;;;;;5055657;28;20424;-66
2022/09/15 11:04:47;;;;;;;3.83;1.20;;;17.60;70.30;;;;;;5055505;28;20432;-67
2022/09/15 11:07:24;;;;;;;2.60;1.33;;;17.80;70.20;;;;;;5053975;28;20443;-65
2022/09/15 11:09:59;;;;;;;2.20;1.37;;;18.00;69.70;;;;;;5053610;28;20463;-65
2022/09/15 11:12:45;;;;;;;3.93;1.10;;;18.20;68.80;;;;;;5053680;28;20514;-65
2022/09/15 11:15:27;;;;;;;3.67;1.20;;;18.40;68.30;;;;;;5054148;28;20441;-65
2022/09/15 11:18:06;;;;;;;2.83;1.00;;;18.30;67.70;;;;;;5053212;28;20429;-65
2022/09/15 11:21:00;;;;;;;2.83;0.90;;;18.30;66.90;;;;;;5054231;28;20420;-64
2022/09/15 11:23:32;;;;;;;3.93;1.60;;;18.20;66.10;;;;;;5054728;28;20873;-66
2022/09/15 11:26:05;;;;;;;4.07;1.00;;;18.20;65.90;;;;;;5053287;28;20923;-65
2022/09/15 11:28:39;;;;;;;4.40;1.03;;;18.40;63.90;;;;;;5053248;28;20919;-66
2022/09/15 11:31:14;;;;;;;2.33;0.90;;;18.50;63.40;;;;;;5067636;28;20467;-65
2022/09/15 11:33:44;;;;;;;5.90;1.00;;;18.60;62.00;;;;;;5074465;28;20522;-67
2022/09/15 11:36:16;;;;;;;4.97;1.13;;;18.70;61.70;;;;;;5074420;28;20512;-68
2022/09/15 11:38:47;;;;;;;3.03;1.17;;;18.90;60.60;;;;;;5073381;28;20438;-67
2022/09/15 11:41:22;;;;;;;4.70;1.83;;;19.20;59.90;;;;;;5070805;28;20439;-68
2022/09/15 11:43:59;;;;;;;4.83;1.30;;;19.50;59.40;;;;;;5074613;28;20811;-67
2022/09/15 11:46:34;;;;;;;4.30;1.23;;;19.80;58.50;;;;;;5073832;28;20521;-65
2022/09/15 11:49:05;;;;;;;6.07;1.47;;;19.80;57.80;;;;;;5075375;28;20435;-67
2022/09/15 11:51:40;;;;;;;2.20;0.80;;;19.50;57.30;;;;;;5073098;28;20490;-66
2022/09/15 11:54:13;;;;;;;5.17;1.33;;;19.30;57.10;;;;;;5074092;28;20462;-68
2022/09/15 11:56:43;;;;;;;3.23;1.20;;;18.90;57.10;;;;;;5073438;28;20430;-68
2022/09/15 11:59:19;;;;;;;5.17;1.80;;;18.70;57.70;;;;;;5073341;28;20455;-67
2022/09/15 12:01:50;;;;;;;5.37;1.30;;;18.50;58.20;;;;;;5073007;28;20423;-65
2022/09/15 12:04:22;;;;;;;2.70;1.90;;;18.30;60.00;;;;;;5072860;28;20954;-69
2022/09/15 12:06:53;;;;;;;5.57;1.00;;;18.00;61.00;;;;;;5073197;28;20427;-66
2022/09/15 12:09:21;;;;;;;3.80;1.30;;;18.00;61.80;;;;;;5072640;28;20459;-68
2022/09/15 12:11:51;;;;;;;5.13;1.93;;;17.90;62.10;;;;;;5072758;28;20479;-67
2022/09/15 12:14:28;;;;;;;5.27;1.40;;;18.00;62.20;;;;;;5073273;28;20487;-67
2022/09/15 12:16:57;;;;;;;5.67;1.80;;;17.90;62.10;;;;;;5073202;28;20432;-66
2022/09/15 12:19:42;;;;;;;5.70;1.33;;;17.90;62.40;;;;;;5073269;28;20509;-67
2022/09/15 12:22:19;;;;;;;5.40;1.30;;;17.80;63.10;;;;;;5074083;28;20439;-65
2022/09/15 12:24:53;;;;;;;3.70;1.40;;;17.60;63.90;;;;;;5073228;28;20434;-68
2022/09/15 12:27:21;;;;;;;2.50;1.10;;;17.40;64.60;;;;;;5073352;28;20428;-67
2022/09/15 12:29:49;;;;;;;3.00;1.13;;;17.20;65.40;;;;;;5073684;28;20443;-66
2022/09/15 12:32:25;;;;;;;3.17;0.90;;;17.20;66.00;;;;;;5077128;28;20483;-66
2022/09/15 12:34:58;;;;;;;3.27;1.10;;;17.20;66.30;;;;;;5076766;28;20450;-67
2022/09/15 12:37:29;;;;;;;3.27;1.10;;;17.30;66.50;;;;;;5077876;28;20492;-66
2022/09/15 12:39:57;;;;;;;4.00;1.23;;;17.30;66.60;;;;;;5077712;28;20436;-66
2022/09/15 12:42:26;;;;;;;8.73;1.10;;;17.30;66.90;;;;;;5076156;28;21043;-67
2022/09/15 12:44:56;;;;;;;3.87;0.97;;;17.40;67.20;;;;;;5076249;28;20942;-67
2022/09/15 12:47:31;;;;;;;2.20;0.93;;;17.40;67.50;;;;;;5076148;28;20958;-66
2022/09/15 12:50:02;;;;;;;4.03;1.00;;;17.40;67.70;;;;;;5076186;28;20481;-66
2022/09/15 12:52:31;;;;;;;3.73;0.97;;;17.40;67.50;;;;;;5076307;28;20487;-66
2022/09/15 12:55:01;;;;;;;4.63;1.23;;;17.60;67.20;;;;;;5076697;28;20864;-66
2022/09/15 12:57:32;;;;;;;6.30;1.43;;;17.80;65.90;;;;;;5076504;28;20804;-66
2022/09/15 13:00:26;;;;;;;1.50;0.60;;;18.00;64.60;;;;;;5076264;28;20431;-66
2022/09/15 13:02:54;;;;;;;1.83;0.70;;;18.20;63.70;;;;;;5076135;28;20534;-66